Wilson Lahn — 8PUO — position and weather

sailwx.info

Track history (hours):
 
Tides and Currents Weather Stations Pressure Air Temp Water Temp Dewpoint Dewpoint Depression Visibility Wind Speed Wind Dir Waves Ship Positions

Wilson Lahn

Last reported at 2014-Jul-22 19:14 UTC. Time now 2014-Jul-23 16:21 UTC.
Position N 60°15' E 005°09'.

Length 83 m; draft 3.2 m.

Type: Cargo ship. MMSI: 314259000.

Date/timePositionNaut miles runAvg speedWind from/ knotsBaromVisibWave heightAir tempDewpointWater temp
2014-Jul-22 19:14N 60°15' E 005°09'811.3
2014-Jul-22 18:32N 60°23' E 005°10'5 0.2
2014-Jul-21 18:23N 60°25' E 005°00'2 1.9
2014-Jul-21 17:33N 60°27' E 005°01'  
2014-Jul-14 17:28N 59°11' E 004°53'910.3
2014-Jul-14 16:33N 59°02' E 005°01'1010.0
2014-Jul-14 15:33N 58°53' E 005°11'1010.2
2014-Jul-14 14:34N 58°44' E 005°20'1310.0
2014-Jul-14 13:15N 58°33' E 005°32'7 9.7
2014-Jul-14 12:33N 58°28' E 005°41'1010.0
2014-Jul-14 11:34N 58°24' E 005°58'2 1.5
2014-Jul-14 10:32N 58°26' E 005°59'6 5.6
2014-Jul-14 09:33N 58°21' E 006°05'8 8.0
2014-Jul-14 08:33N 58°13' E 006°09'1010.4
2014-Jul-14 07:33N 58°04' E 006°02'202 9.5
2014-Jul-13 10:13N 54°44' E 005°08'6 9.9
2014-Jul-13 09:33N 54°37' E 005°06'30 9.9
2014-Jul-13 06:31N 54°07' E 004°58'1010.5
2014-Jul-13 05:32N 53°57' E 004°56'1010.2
2014-Jul-13 04:33N 53°47' E 004°53'1110.3
2014-Jul-13 03:30N 53°36' E 004°50'9 9.8
2014-Jul-13 02:33N 53°28' E 004°44'9 9.6
2014-Jul-13 01:33N 53°19' E 004°37'9 9.3
2014-Jul-13 00:33N 53°11' E 004°30'9 9.1
2014-Jul-12 23:33N 53°03' E 004°23'27 8.9
2014-Jul-12 20:31N 52°39' E 004°02'  
Track history (hours):
 
Tides and Currents Weather Stations Pressure Air Temp Water Temp Dewpoint Dewpoint Depression Visibility Wind Speed Wind Dir Waves Ship Positions

Wilson Lahn

Last reported at 2014-Jul-22 19:14 UTC. Time now 2014-Jul-23 16:21 UTC.
Position N 60°15' E 005°09'.

Length 83 m; draft 3.2 m.

Type: Cargo ship. MMSI: 314259000.

Date/timePositionNaut miles runAvg speedWind from/ knotsBaromVisibWave heightAir tempDewpointWater temp
2014-Jul-22 19:14N 60°15' E 005°09'811.3
2014-Jul-22 18:32N 60°23' E 005°10'5 0.2
2014-Jul-21 18:23N 60°25' E 005°00'2 1.9
2014-Jul-21 17:33N 60°27' E 005°01'  
2014-Jul-14 17:28N 59°11' E 004°53'910.3
2014-Jul-14 16:33N 59°02' E 005°01'1010.0
2014-Jul-14 15:33N 58°53' E 005°11'1010.2
2014-Jul-14 14:34N 58°44' E 005°20'1310.0
2014-Jul-14 13:15N 58°33' E 005°32'7 9.7
2014-Jul-14 12:33N 58°28' E 005°41'1010.0
2014-Jul-14 11:34N 58°24' E 005°58'2 1.5
2014-Jul-14 10:32N 58°26' E 005°59'6 5.6
2014-Jul-14 09:33N 58°21' E 006°05'8 8.0
2014-Jul-14 08:33N 58°13' E 006°09'1010.4
2014-Jul-14 07:33N 58°04' E 006°02'202 9.5
2014-Jul-13 10:13N 54°44' E 005°08'6 9.9
2014-Jul-13 09:33N 54°37' E 005°06'30 9.9
2014-Jul-13 06:31N 54°07' E 004°58'1010.5
2014-Jul-13 05:32N 53°57' E 004°56'1010.2
2014-Jul-13 04:33N 53°47' E 004°53'1110.3
2014-Jul-13 03:30N 53°36' E 004°50'9 9.8
2014-Jul-13 02:33N 53°28' E 004°44'9 9.6
2014-Jul-13 01:33N 53°19' E 004°37'9 9.3
2014-Jul-13 00:33N 53°11' E 004°30'9 9.1
2014-Jul-12 23:33N 53°03' E 004°23'27 8.9
2014-Jul-12 20:31N 52°39' E 004°02'  

Dump ship's entire track history